Time;durP1;ratioP1;P1;durP2;ratioP2;P2;SDS_P1;SDS_P2;PMS_P1;PMS_P2;Temp;Humidity;BMP_temperature;BMP_pressure;BME280_temperature;BME280_humidity;BME280_pressure;Samples;Min_cycle;Max_cycle;Signal;HPM_P1;HPM_P2
2022/01/05 08:29:25;;;;;;;13.57;10.52;;;;;;;;;;6181911;22;20024;-84
2022/01/05 08:31:51;;;;;;;14.15;10.82;;;;;;;;;;6219814;23;20372;-83
2022/01/05 08:34:16;;;;;;;14.23;11.32;;;;;;;;;;6219623;23;20019;-84
2022/01/05 08:36:42;;;;;;;17.20;12.88;;;;;;;;;;6246873;23;20004;-84
2022/01/05 08:39:07;;;;;;;17.45;12.98;;;;;;;;;;6247052;23;20420;-83
2022/01/05 08:41:33;;;;;;;18.73;13.45;;;;;;;;;;6219850;23;20004;-84
2022/01/05 08:43:58;;;;;;;15.43;12.98;;;;;;;;;;6246619;23;20015;-83
2022/01/05 08:46:24;;;;;;;14.43;11.95;;;;;;;;;;6246395;23;20430;-83
2022/01/05 08:48:49;;;;;;;14.15;11.50;;;;;;;;;;6246543;23;20442;-83
2022/01/05 08:51:14;;;;;;;12.85;9.88;;;;;;;;;;6246714;23;20004;-83
2022/01/05 08:53:40;;;;;;;11.85;10.10;;;;;;;;;;6246049;23;20004;-83
2022/01/05 08:56:06;;;;;;;12.00;10.60;;;;;;;;;;6246260;23;20050;-83
2022/01/05 08:58:32;;;;;;;14.00;11.48;;;;;;;;;;6246619;23;20438;-83
2022/01/05 09:00:57;;;;;;;17.65;13.50;;;;;;;;;;6246751;23;20364;-83
2022/01/05 09:03:24;;;;;;;17.08;13.88;;;;;;;;;;6246416;23;20026;-83
2022/01/05 09:05:49;;;;;;;26.00;22.38;;;;;;;;;;6246645;23;20082;-83
2022/01/05 09:08:15;;;;;;;42.97;34.15;;;;;;;;;;6246552;23;20415;-82
2022/01/05 09:10:43;;;;;;;40.88;31.15;;;;;;;;;;6246617;23;20115;-82
2022/01/05 09:13:12;;;;;;;44.53;36.47;;;;;;;;;;6247169;23;20001;-82
2022/01/05 09:15:40;;;;;;;25.83;20.77;;;;;;;;;;6219699;23;20019;-82
2022/01/05 09:18:05;;;;;;;30.95;26.75;;;;;;;;;;6246602;23;20000;-83
2022/01/05 09:20:31;;;;;;;20.33;17.20;;;;;;;;;;6246764;23;19996;-83
2022/01/05 09:22:57;;;;;;;22.95;18.48;;;;;;;;;;6246631;23;20001;-82
2022/01/05 10:43:21;;;;;;;16.70;11.52;;;;;;;;;;6168821;23;20051;-82
2022/01/05 10:45:53;;;;;;;16.10;11.35;;;;;;;;;;6248017;23;20019;-81
2022/01/05 10:48:20;;;;;;;17.85;11.32;;;;;;;;;;6220953;23;20140;-82
2022/01/05 10:50:50;;;;;;;20.65;14.75;;;;;;;;;;6247779;23;20004;-82
2022/01/05 10:53:20;;;;;;;17.45;13.18;;;;;;;;;;6247821;23;19997;-83
2022/01/05 10:55:47;;;;;;;15.10;12.25;;;;;;;;;;6247872;23;20035;-84
2022/01/05 10:58:15;;;;;;;15.43;12.13;;;;;;;;;;6247782;23;20027;-82
2022/01/05 11:00:45;;;;;;;14.25;10.15;;;;;;;;;;6247985;23;20011;-81
2022/01/05 11:03:32;;;;;;;11.05;9.00;;;;;;;;;;6247970;23;20000;-81
2022/01/05 11:06:07;;;;;;;6.60;5.60;;;;;;;;;;6247754;23;20004;-82
2022/01/05 11:08:53;;;;;;;6.28;4.63;;;;;;;;;;6247417;23;20362;-83
2022/01/05 11:11:41;;;;;;;5.57;5.03;;;;;;;;;;6247706;23;20450;-83
2022/01/05 11:14:20;;;;;;;6.75;5.00;;;;;;;;;;6247587;23;20000;-83
2022/01/05 11:16:53;;;;;;;6.70;4.60;;;;;;;;;;6247585;23;20085;-82
2022/01/05 11:19:37;;;;;;;5.55;4.70;;;;;;;;;;6220569;23;20055;-82
2022/01/05 11:22:16;;;;;;;5.55;4.57;;;;;;;;;;6247855;23;20296;-84
2022/01/05 11:24:47;;;;;;;5.30;3.90;;;;;;;;;;6247646;23;20018;-83
2022/01/05 11:27:25;;;;;;;4.57;3.33;;;;;;;;;;6247596;23;20331;-84
2022/01/05 11:29:51;;;;;;;4.82;3.65;;;;;;;;;;6248106;23;20066;-83
2022/01/05 11:32:25;;;;;;;4.38;3.65;;;;;;;;;;6248011;23;20008;-83
2022/01/05 11:34:51;;;;;;;3.72;3.05;;;;;;;;;;6220894;23;20008;-83
2022/01/05 11:37:18;;;;;;;3.28;2.70;;;;;;;;;;6248522;23;20011;-83
2022/01/05 11:39:55;;;;;;;3.67;2.78;;;;;;;;;;6250779;23;20094;-83
2022/01/05 11:42:29;;;;;;;3.53;2.55;;;;;;;;;;6247541;23;20011;-83
2022/01/05 11:44:55;;;;;;;3.10;2.80;;;;;;;;;;6220569;23;20010;-83
2022/01/05 11:47:29;;;;;;;2.50;2.30;;;;;;;;;;6220718;23;20339;-83
2022/01/05 11:50:15;;;;;;;2.22;2.00;;;;;;;;;;6247333;23;20027;-83
2022/01/05 11:52:58;;;;;;;3.33;2.30;;;;;;;;;;6247292;23;20331;-82
2022/01/05 11:55:24;;;;;;;2.20;2.00;;;;;;;;;;6247280;23;20004;-84
2022/01/05 11:58:19;;;;;;;2.15;1.85;;;;;;;;;;6221197;23;20011;-83
2022/01/05 12:00:46;;;;;;;2.65;2.42;;;;;;;;;;6221029;23;20046;-82
2022/01/05 12:03:12;;;;;;;2.88;2.50;;;;;;;;;;6247870;23;20331;-84
2022/01/05 12:06:07;;;;;;;3.08;2.78;;;;;;;;;;6247165;23;20071;-82
2022/01/05 12:08:52;;;;;;;4.07;2.92;;;;;;;;;;6230741;23;20010;-85
2022/01/05 12:11:41;;;;;;;3.97;3.22;;;;;;;;;;6219893;23;20083;-84
2022/01/05 12:14:22;;;;;;;3.30;3.00;;;;;;;;;;6219865;23;20304;-87
2022/01/05 12:17:00;;;;;;;3.10;2.80;;;;;;;;;;6220109;23;20312;-88
2022/01/05 12:19:27;;;;;;;3.25;2.70;;;;;;;;;;6220212;23;20497;-87
2022/01/05 12:21:55;;;;;;;2.80;2.60;;;;;;;;;;6221022;23;20007;-90
2022/01/05 12:24:21;;;;;;;3.13;2.50;;;;;;;;;;6220957;23;20000;-89
2022/01/05 12:27:17;;;;;;;4.43;2.47;;;;;;;;;;6247628;23;20004;-90
2022/01/05 12:29:43;;;;;;;4.30;2.35;;;;;;;;;;6247720;23;20028;-90
2022/01/05 12:32:09;;;;;;;3.03;1.95;;;;;;;;;;6220732;23;20011;-89
2022/01/05 12:34:56;;;;;;;2.05;1.85;;;;;;;;;;6247387;23;20105;-88
2022/01/05 12:37:36;;;;;;;2.00;1.40;;;;;;;;;;6247709;23;20011;-89
2022/01/05 12:40:20;;;;;;;6.28;2.10;;;;;;;;;;6220703;23;20008;-91
2022/01/05 12:42:45;;;;;;;1.70;1.60;;;;;;;;;;6247533;23;20016;-86
2022/01/05 12:45:45;;;;;;;1.98;1.60;;;;;;;;;;6247334;23;20011;-91
2022/01/05 12:48:33;;;;;;;2.30;1.33;;;;;;;;;;6246983;23;20004;-89
2022/01/05 12:53:52;;;;;;;1.70;1.50;;;;;;;;;;6247569;23;20008;-89
2022/01/05 12:56:26;;;;;;;1.63;1.52;;;;;;;;;;6247169;23;20004;-91
2022/01/05 12:58:52;;;;;;;1.55;1.45;;;;;;;;;;6220018;23;20083;-89
2022/01/05 13:01:19;;;;;;;1.60;1.50;;;;;;;;;;6220297;23;20007;-88
2022/01/05 13:03:44;;;;;;;2.15;1.90;;;;;;;;;;6220437;23;20008;-90
2022/01/05 13:06:19;;;;;;;2.80;2.38;;;;;;;;;;6220310;23;20379;-87
2022/01/05 13:08:48;;;;;;;1.85;1.67;;;;;;;;;;6220186;23;20061;-86
2022/01/05 13:11:30;;;;;;;7.63;6.82;;;;;;;;;;6220217;23;20109;-89
2022/01/05 13:14:14;;;;;;;6.82;4.40;;;;;;;;;;6247126;23;20008;-86
2022/01/05 13:16:42;;;;;;;3.75;3.13;;;;;;;;;;6246103;23;20011;-88
2022/01/05 13:19:13;;;;;;;3.70;1.45;;;;;;;;;;6219011;23;20008;-89
2022/01/05 13:21:46;;;;;;;3.70;2.88;;;;;;;;;;6246598;23;20078;-91
2022/01/05 13:24:12;;;;;;;2.65;1.63;;;;;;;;;;6246871;23;20008;-88
2022/01/05 13:26:58;;;;;;;1.58;1.48;;;;;;;;;;6247319;23;20005;-87
2022/01/05 13:29:25;;;;;;;2.10;1.70;;;;;;;;;;6221792;23;20004;-91
2022/01/05 13:31:59;;;;;;;1.67;1.58;;;;;;;;;;6220328;23;20335;-88
2022/01/05 13:34:53;;;;;;;1.92;1.70;;;;;;;;;;6220124;23;20321;-83
2022/01/05 13:37:46;;;;;;;2.55;1.98;;;;;;;;;;6245420;23;20004;-84
2022/01/05 13:40:20;;;;;;;2.72;2.40;;;;;;;;;;6240017;23;20000;-84
2022/01/05 13:42:57;;;;;;;4.40;3.95;;;;;;;;;;6246132;23;20019;-84
2022/01/05 13:45:27;;;;;;;4.50;4.05;;;;;;;;;;6246316;23;20411;-84
2022/01/05 13:47:58;;;;;;;4.15;3.85;;;;;;;;;;6246395;23;20058;-84
2022/01/05 13:50:39;;;;;;;2.13;1.92;;;;;;;;;;6246375;23;20000;-83
2022/01/05 13:53:10;;;;;;;3.03;2.72;;;;;;;;;;6219394;23;20012;-84
2022/01/05 13:55:42;;;;;;;1.90;1.77;;;;;;;;;;6246676;23;20008;-84
2022/01/05 13:58:28;;;;;;;2.25;1.73;;;;;;;;;;6246284;23;20004;-84
2022/01/05 14:01:05;;;;;;;2.20;2.00;;;;;;;;;;6218939;23;20060;-84
2022/01/05 14:04:06;;;;;;;1.90;1.80;;;;;;;;;;6246569;23;20008;-84
2022/01/05 14:06:32;;;;;;;1.88;1.40;;;;;;;;;;6248195;23;20011;-84
2022/01/05 14:09:02;;;;;;;1.52;1.42;;;;;;;;;;6248340;23;20319;-84
2022/01/05 14:11:32;;;;;;;2.97;2.05;;;;;;;;;;6221129;23;20004;-83
2022/01/05 14:14:09;;;;;;;1.90;1.80;;;;;;;;;;6248260;23;20004;-84
2022/01/05 14:16:38;;;;;;;1.92;1.83;;;;;;;;;;6248413;23;20058;-83
2022/01/05 14:19:05;;;;;;;4.75;3.80;;;;;;;;;;6248130;23;20416;-83
2022/01/05 14:21:34;;;;;;;2.42;2.22;;;;;;;;;;6221365;23;20008;-83
2022/01/05 14:24:00;;;;;;;3.10;2.90;;;;;;;;;;6248306;23;20010;-83
2022/01/05 14:26:28;;;;;;;6.00;3.33;;;;;;;;;;6248207;23;20000;-83
2022/01/05 14:28:58;;;;;;;7.18;3.60;;;;;;;;;;6248417;23;20382;-83
2022/01/05 14:31:35;;;;;;;6.18;3.88;;;;;;;;;;6221386;23;20500;-82
2022/01/05 14:34:02;;;;;;;0.80;0.80;;;;;;;;;;6248202;23;20004;-83
2022/01/05 14:36:35;;;;;;;4.43;3.03;;;;;;;;;;6248073;23;20008;-83
2022/01/05 14:39:02;;;;;;;1.45;1.20;;;;;;;;;;6220979;23;20000;-83
2022/01/05 14:41:39;;;;;;;1.15;1.05;;;;;;;;;;6220825;23;20039;-82
2022/01/05 14:44:23;;;;;;;11.73;6.90;;;;;;;;;;6247352;23;20004;-82
2022/01/05 14:46:52;;;;;;;2.17;1.45;;;;;;;;;;6247677;23;20450;-83
2022/01/05 14:49:20;;;;;;;1.50;1.27;;;;;;;;;;6248003;23;20067;-82
2022/01/05 14:51:48;;;;;;;0.80;0.80;;;;;;;;;;6221100;23;20091;-83
2022/01/05 14:54:14;;;;;;;0.70;0.70;;;;;;;;;;6248066;23;20056;-85
2022/01/05 14:56:41;;;;;;;1.35;1.02;;;;;;;;;;6246816;23;20339;-83
2022/01/05 14:59:11;;;;;;;1.15;1.00;;;;;;;;;;6247519;23;20035;-83
2022/01/05 15:01:40;;;;;;;0.65;0.65;;;;;;;;;;6247400;23;19996;-82
2022/01/05 15:04:06;;;;;;;1.30;1.20;;;;;;;;;;6247695;23;20008;-84
2022/01/05 15:06:33;;;;;;;1.50;1.40;;;;;;;;;;6247776;23;20004;-83
2022/01/05 15:09:00;;;;;;;0.90;0.90;;;;;;;;;;6220660;23;20014;-82
2022/01/05 15:11:25;;;;;;;0.90;0.90;;;;;;;;;;6247707;23;20028;-82
2022/01/05 15:13:51;;;;;;;0.70;0.70;;;;;;;;;;6247751;23;20000;-82
2022/01/05 15:16:16;;;;;;;0.52;0.52;;;;;;;;;;6222199;23;20008;-82
2022/01/05 15:18:43;;;;;;;0.70;0.70;;;;;;;;;;6253962;23;20000;-82
2022/01/05 15:21:13;;;;;;;0.70;0.70;;;;;;;;;;6226880;23;20008;-82
2022/01/05 15:23:39;;;;;;;0.77;0.60;;;;;;;;;;6248642;23;20008;-83
2022/01/05 15:26:05;;;;;;;0.77;0.77;;;;;;;;;;6247704;23;20042;-82
2022/01/05 15:28:31;;;;;;;2.28;2.08;;;;;;;;;;6247487;23;20001;-83
2022/01/05 15:30:59;;;;;;;4.65;2.67;;;;;;;;;;6245263;23;20058;-82
2022/01/05 15:33:24;;;;;;;1.98;1.60;;;;;;;;;;6246910;23;20005;-82
2022/01/05 15:35:50;;;;;;;2.67;1.42;;;;;;;;;;6220190;23;20004;-83
2022/01/05 15:38:16;;;;;;;0.75;0.70;;;;;;;;;;6220342;23;20008;-83
2022/01/05 15:40:43;;;;;;;0.60;0.60;;;;;;;;;;6220371;23;20007;-82
2022/01/05 15:43:09;;;;;;;1.10;0.98;;;;;;;;;;6247057;23;20016;-83
2022/01/05 15:45:35;;;;;;;1.50;1.00;;;;;;;;;;6247439;23;20487;-83
2022/01/05 17:13:57;;;;;;;1.40;1.30;;;;;;;;;;6188725;23;20012;-83
2022/01/05 17:16:22;;;;;;;1.23;1.20;;;;;;;;;;6216246;23;20008;-84
2022/01/05 17:18:47;;;;;;;0.90;0.90;;;;;;;;;;6214481;23;20031;-85
2022/01/05 17:21:13;;;;;;;1.40;1.30;;;;;;;;;;6216292;23;20008;-85
2022/01/05 17:23:43;;;;;;;1.00;1.00;;;;;;;;;;6214654;23;20008;-82
2022/01/05 17:26:08;;;;;;;;;;;;;;;;;;6216741;23;20334;-83
2022/01/05 17:28:34;;;;;;;1.30;1.20;;;;;;;;;;6216441;23;19935;-84
2022/01/05 17:30:59;;;;;;;1.13;1.00;;;;;;;;;;6216345;23;20011;-84
2022/01/05 17:33:25;;;;;;;1.10;1.00;;;;;;;;;;6216576;23;20494;-85
2022/01/05 17:35:50;;;;;;;1.35;1.25;;;;;;;;;;6214783;23;20019;-86
2022/01/05 17:38:16;;;;;;;1.13;1.00;;;;;;;;;;6216102;23;20007;-86
2022/01/05 17:40:41;;;;;;;1.30;1.20;;;;;;;;;;6214416;23;20008;-83
2022/01/05 17:43:07;;;;;;;0.85;0.85;;;;;;;;;;6215980;23;20001;-84
2022/01/05 17:45:32;;;;;;;0.93;0.93;;;;;;;;;;6215948;23;20088;-84
2022/01/05 17:47:58;;;;;;;1.15;1.15;;;;;;;;;;6215829;23;20033;-84
2022/01/05 17:50:23;;;;;;;1.25;1.15;;;;;;;;;;6215911;23;20301;-84
2022/01/05 17:52:49;;;;;;;1.52;1.30;;;;;;;;;;6214637;23;20004;-84
2022/01/05 17:55:14;;;;;;;2.05;1.30;;;;;;;;;;6216497;23;20015;-85
2022/01/05 17:57:39;;;;;;;1.95;1.02;;;;;;;;;;6215913;23;20001;-87
2022/01/05 18:00:07;;;;;;;2.05;1.05;;;;;;;;;;6214587;23;20005;-85
2022/01/05 18:02:33;;;;;;;2.45;1.00;;;;;;;;;;6215459;23;20378;-84
2022/01/05 18:04:58;;;;;;;1.30;1.20;;;;;;;;;;6215280;23;20024;-84
2022/01/05 18:07:24;;;;;;;1.33;1.20;;;;;;;;;;6214011;23;20032;-84
2022/01/05 18:09:50;;;;;;;1.20;1.10;;;;;;;;;;6215476;23;20090;-85
2022/01/05 18:12:15;;;;;;;1.70;1.60;;;;;;;;;;6220482;23;20046;-85
2022/01/05 18:14:40;;;;;;;1.30;1.20;;;;;;;;;;6245791;23;20012;-84
2022/01/05 18:17:06;;;;;;;1.58;1.48;;;;;;;;;;6245902;23;20075;-84
2022/01/05 18:19:31;;;;;;;1.73;1.45;;;;;;;;;;6245892;23;20000;-85
2022/01/05 18:21:58;;;;;;;1.60;1.50;;;;;;;;;;6219153;23;20008;-84
2022/01/05 18:24:23;;;;;;;1.50;1.40;;;;;;;;;;6245974;23;20008;-84
2022/01/05 18:26:50;;;;;;;1.30;1.20;;;;;;;;;;6219143;23;20083;-84
2022/01/05 18:29:15;;;;;;;1.17;1.08;;;;;;;;;;6246867;23;20015;-84
2022/01/05 18:31:41;;;;;;;1.10;1.00;;;;;;;;;;6219059;23;20331;-84
2022/01/05 18:34:07;;;;;;;1.42;1.25;;;;;;;;;;6218677;23;20008;-84
2022/01/05 18:36:33;;;;;;;1.63;1.52;;;;;;;;;;6219052;23;20008;-84
2022/01/05 18:38:59;;;;;;;1.70;1.60;;;;;;;;;;6245862;23;20363;-85
2022/01/05 18:41:26;;;;;;;1.40;1.30;;;;;;;;;;6245763;23;20000;-85
2022/01/05 18:43:53;;;;;;;4.55;1.45;;;;;;;;;;6245702;23;20007;-85
2022/01/05 18:46:19;;;;;;;1.63;1.30;;;;;;;;;;6245967;23;20439;-84
2022/01/05 18:48:45;;;;;;;1.30;1.20;;;;;;;;;;6245789;23;20003;-84
2022/01/05 18:51:11;;;;;;;1.60;1.50;;;;;;;;;;6220643;23;20027;-84
2022/01/05 18:53:37;;;;;;;1.23;1.15;;;;;;;;;;6248061;23;20008;-84
2022/01/05 18:56:03;;;;;;;2.63;1.35;;;;;;;;;;6220805;23;20014;-84
2022/01/05 18:58:28;;;;;;;2.38;1.70;;;;;;;;;;6247922;23;20007;-84
2022/01/05 19:00:54;;;;;;;6.93;4.85;;;;;;;;;;6247794;23;19996;-83
2022/01/05 19:03:20;;;;;;;26.35;9.73;;;;;;;;;;6247798;23;20004;-84
2022/01/05 19:05:47;;;;;;;12.00;5.90;;;;;;;;;;6247855;23;19996;-83
2022/01/05 19:08:12;;;;;;;4.72;2.30;;;;;;;;;;6247603;23;20004;-84
2022/01/05 19:10:38;;;;;;;2.92;2.60;;;;;;;;;;6247793;23;20071;-83
2022/01/05 19:13:04;;;;;;;1.67;1.58;;;;;;;;;;6247628;23;20431;-84
2022/01/05 19:15:30;;;;;;;2.90;1.85;;;;;;;;;;6220824;23;20015;-84
2022/01/05 19:17:55;;;;;;;1.40;1.30;;;;;;;;;;6247666;23;20399;-85
2022/01/05 19:20:22;;;;;;;2.03;1.48;;;;;;;;;;6247659;23;20441;-84
2022/01/05 19:22:48;;;;;;;1.60;1.50;;;;;;;;;;6247715;23;20004;-84
2022/01/05 19:25:14;;;;;;;1.92;0.80;;;;;;;;;;6247882;23;20079;-84
2022/01/05 19:27:39;;;;;;;1.00;1.00;;;;;;;;;;6247602;23;20000;-84
2022/01/05 19:30:05;;;;;;;1.08;1.08;;;;;;;;;;6247484;23;20011;-85
2022/01/05 19:32:31;;;;;;;1.05;0.80;;;;;;;;;;6247675;23;20340;-85
2022/01/05 19:34:56;;;;;;;0.90;0.90;;;;;;;;;;6247613;23;20005;-83
2022/01/05 19:37:21;;;;;;;1.23;0.80;;;;;;;;;;6247481;23;19996;-84
2022/01/05 19:39:47;;;;;;;1.38;0.85;;;;;;;;;;6247440;23;20004;-84
2022/01/05 19:42:16;;;;;;;0.80;0.80;;;;;;;;;;6220471;23;20030;-85
2022/01/05 19:44:42;;;;;;;1.15;0.88;;;;;;;;;;6247810;23;20098;-84
2022/01/05 19:47:08;;;;;;;0.73;0.73;;;;;;;;;;6220543;23;20416;-86
2022/01/05 19:49:34;;;;;;;1.83;1.00;;;;;;;;;;6220634;23;20008;-86
2022/01/05 19:52:06;;;;;;;0.70;0.70;;;;;;;;;;6219740;23;20005;-86
2022/01/05 19:54:37;;;;;;;0.93;0.88;;;;;;;;;;6220351;23;20028;-84
2022/01/05 19:57:04;;;;;;;0.80;0.80;;;;;;;;;;6220436;23;20011;-84
2022/01/05 19:59:39;;;;;;;1.20;1.10;;;;;;;;;;6247364;23;20007;-85
2022/01/05 20:02:17;;;;;;;0.80;0.80;;;;;;;;;;6220235;23;20087;-84
2022/01/05 20:04:47;;;;;;;1.40;1.30;;;;;;;;;;6247115;23;20007;-84
2022/01/05 20:07:13;;;;;;;0.75;0.75;;;;;;;;;;6220461;23;20518;-85
2022/01/05 20:09:40;;;;;;;1.38;1.30;;;;;;;;;;6246998;23;20000;-85
2022/01/05 20:12:06;;;;;;;1.70;1.60;;;;;;;;;;6247320;23;20034;-84
2022/01/05 20:14:34;;;;;;;2.70;1.80;;;;;;;;;;6247265;23;20001;-84
2022/01/05 20:16:59;;;;;;;8.43;4.07;;;;;;;;;;6247434;23;20020;-85
2022/01/05 20:20:04;;;;;;;8.18;4.57;;;;;;;;;;6257153;23;20046;-83
2022/01/05 20:22:29;;;;;;;8.60;4.10;;;;;;;;;;6246312;23;20075;-85
2022/01/05 20:24:55;;;;;;;8.15;3.25;;;;;;;;;;6247174;23;20420;-84
2022/01/05 20:27:20;;;;;;;4.72;2.70;;;;;;;;;;6246589;23;20004;-88
2022/01/05 20:29:46;;;;;;;7.00;3.92;;;;;;;;;;6246424;23;20007;-85
2022/01/05 20:32:31;;;;;;;9.55;4.55;;;;;;;;;;6247107;23;19997;-86
2022/01/05 20:34:56;;;;;;;6.18;2.85;;;;;;;;;;6221075;23;20012;-85
2022/01/05 20:37:25;;;;;;;4.20;2.28;;;;;;;;;;6221538;23;20066;-86
2022/01/05 20:40:03;;;;;;;10.95;5.47;;;;;;;;;;6220897;23;20431;-85
2022/01/05 20:42:29;;;;;;;3.63;2.15;;;;;;;;;;6220933;23;20008;-86
2022/01/05 20:44:54;;;;;;;3.00;2.80;;;;;;;;;;6247470;23;20089;-85
2022/01/05 20:47:33;;;;;;;1.17;1.02;;;;;;;;;;6219820;23;20000;-84
2022/01/05 20:49:58;;;;;;;1.17;0.98;;;;;;;;;;6247522;23;20003;-84
2022/01/05 20:52:24;;;;;;;1.00;0.90;;;;;;;;;;6247793;23;20000;-85
2022/01/05 20:54:53;;;;;;;3.80;2.80;;;;;;;;;;6220434;23;20026;-87
2022/01/05 20:57:19;;;;;;;6.13;4.35;;;;;;;;;;6220321;23;20004;-85
2022/01/05 20:59:44;;;;;;;1.80;1.40;;;;;;;;;;6220180;23;20011;-84
2022/01/05 21:02:18;;;;;;;1.50;1.40;;;;;;;;;;6248071;23;20001;-85
2022/01/05 21:04:45;;;;;;;0.70;0.70;;;;;;;;;;6220072;23;20335;-86
2022/01/05 21:07:11;;;;;;;1.15;1.05;;;;;;;;;;6219596;23;20419;-86
2022/01/05 21:09:36;;;;;;;0.60;0.60;;;;;;;;;;6246721;23;20083;-84
2022/01/05 21:12:02;;;;;;;0.85;0.85;;;;;;;;;;6219393;23;20004;-83
2022/01/05 21:14:28;;;;;;;0.98;0.77;;;;;;;;;;6246547;23;20322;-85
2022/01/05 21:16:53;;;;;;;1.58;1.48;;;;;;;;;;6246539;23;20057;-82
2022/01/05 21:19:19;;;;;;;1.45;1.10;;;;;;;;;;6219573;23;20442;-84
2022/01/05 21:21:47;;;;;;;1.10;1.10;;;;;;;;;;6246582;23;20000;-85
2022/01/05 21:24:13;;;;;;;1.20;1.10;;;;;;;;;;6220047;23;20075;-84
2022/01/05 21:26:38;;;;;;;0.90;0.90;;;;;;;;;;6246529;23;20047;-83
2022/01/05 21:29:04;;;;;;;0.90;0.90;;;;;;;;;;6220053;23;20087;-86
2022/01/05 21:31:30;;;;;;;0.90;0.90;;;;;;;;;;6219673;23;20058;-83
2022/01/05 21:33:56;;;;;;;1.10;1.10;;;;;;;;;;6246482;23;20011;-86
2022/01/05 21:36:21;;;;;;;0.90;0.90;;;;;;;;;;6246444;23;20004;-86
2022/01/05 21:38:47;;;;;;;1.48;1.10;;;;;;;;;;6246454;23;20004;-85
2022/01/05 21:41:13;;;;;;;1.00;0.85;;;;;;;;;;6246488;23;20000;-86
2022/01/05 21:43:40;;;;;;;0.80;0.80;;;;;;;;;;6219548;23;20009;-83
2022/01/05 21:46:05;;;;;;;0.85;0.85;;;;;;;;;;6246436;23;20366;-83
2022/01/05 21:48:31;;;;;;;1.30;0.88;;;;;;;;;;6246476;23;20014;-83
2022/01/05 21:50:57;;;;;;;0.70;0.70;;;;;;;;;;6246151;23;20065;-83
2022/01/05 21:53:22;;;;;;;0.75;0.70;;;;;;;;;;6246476;23;20056;-83
2022/01/05 21:55:48;;;;;;;0.70;0.70;;;;;;;;;;6246440;23;20111;-83
2022/01/05 21:58:13;;;;;;;0.88;0.88;;;;;;;;;;6246246;23;20444;-83
2022/01/05 22:00:39;;;;;;;0.60;0.60;;;;;;;;;;6246229;23;20008;-83
2022/01/05 22:03:05;;;;;;;1.40;1.10;;;;;;;;;;6246220;23;20319;-83
2022/01/05 22:05:31;;;;;;;1.20;1.10;;;;;;;;;;6246770;23;20069;-83
2022/01/05 22:07:58;;;;;;;0.88;0.80;;;;;;;;;;6219318;23;20004;-83
2022/01/05 22:10:23;;;;;;;1.15;1.00;;;;;;;;;;6219419;23;20415;-83
2022/01/05 22:12:49;;;;;;;3.22;1.23;;;;;;;;;;6246223;23;20087;-84
2022/01/05 22:15:15;;;;;;;1.30;1.20;;;;;;;;;;6245997;23;20427;-83
2022/01/05 22:17:41;;;;;;;0.95;0.95;;;;;;;;;;6246230;23;20009;-83
2022/01/05 22:20:15;;;;;;;1.20;1.10;;;;;;;;;;6245890;23;20071;-83
2022/01/05 22:22:41;;;;;;;0.93;0.90;;;;;;;;;;6246271;23;20004;-83
2022/01/05 22:25:07;;;;;;;0.73;0.73;;;;;;;;;;6247260;23;20000;-83
2022/01/05 22:27:32;;;;;;;1.08;0.80;;;;;;;;;;6248217;23;20006;-85
2022/01/05 22:29:58;;;;;;;0.85;0.70;;;;;;;;;;6248272;23;20351;-84
2022/01/05 22:32:24;;;;;;;0.88;0.88;;;;;;;;;;6248070;23;20004;-85
2022/01/05 22:34:50;;;;;;;1.30;0.95;;;;;;;;;;6248086;23;20004;-85
2022/01/05 22:37:16;;;;;;;0.70;0.70;;;;;;;;;;6248004;23;20007;-85
2022/01/05 22:39:42;;;;;;;0.88;0.88;;;;;;;;;;6248077;23;20031;-85
2022/01/05 22:42:08;;;;;;;0.80;0.80;;;;;;;;;;6248109;23;20359;-85
2022/01/05 22:44:33;;;;;;;1.02;0.80;;;;;;;;;;6248198;23;20019;-84
2022/01/05 22:46:58;;;;;;;0.82;0.82;;;;;;;;;;6248009;23;20004;-85
2022/01/05 22:49:24;;;;;;;7.28;2.10;;;;;;;;;;6247804;23;20000;-88
2022/01/05 22:51:50;;;;;;;0.93;0.90;;;;;;;;;;6247421;23;20007;-85
2022/01/05 22:54:16;;;;;;;0.85;0.85;;;;;;;;;;6247680;23;20007;-85
2022/01/05 22:56:42;;;;;;;0.90;0.80;;;;;;;;;;6221054;23;20012;-85
2022/01/05 22:59:08;;;;;;;1.90;1.00;;;;;;;;;;6220986;23;20006;-85
2022/01/05 23:01:34;;;;;;;0.93;0.73;;;;;;;;;;6221143;23;20036;-84
2022/01/05 23:03:59;;;;;;;2.05;0.80;;;;;;;;;;6221060;23;20083;-84
2022/01/05 23:06:25;;;;;;;0.70;0.70;;;;;;;;;;6248407;23;20006;-84
2022/01/05 23:08:50;;;;;;;1.20;0.90;;;;;;;;;;6247817;23;20032;-84
2022/01/05 23:11:16;;;;;;;3.38;0.70;;;;;;;;;;6248248;23;20008;-85
2022/01/05 23:13:41;;;;;;;0.90;0.70;;;;;;;;;;6220829;23;20451;-84
2022/01/05 23:16:07;;;;;;;0.60;0.60;;;;;;;;;;6247851;23;20315;-84
2022/01/05 23:18:34;;;;;;;0.65;0.65;;;;;;;;;;6247802;23;20084;-84
2022/01/05 23:21:00;;;;;;;1.20;1.10;;;;;;;;;;6247981;23;20004;-84
2022/01/05 23:23:26;;;;;;;0.70;0.70;;;;;;;;;;6247738;23;19996;-84
2022/01/05 23:25:51;;;;;;;0.90;0.90;;;;;;;;;;6247950;23;20004;-83
2022/01/05 23:28:17;;;;;;;0.73;0.70;;;;;;;;;;6247805;23;20000;-83
2022/01/05 23:30:43;;;;;;;1.58;1.20;;;;;;;;;;6247666;23;20005;-83
2022/01/05 23:33:09;;;;;;;0.80;0.80;;;;;;;;;;6220916;23;20407;-84
2022/01/05 23:35:35;;;;;;;0.82;0.70;;;;;;;;;;6247553;23;20015;-84
2022/01/05 23:38:01;;;;;;;1.02;0.90;;;;;;;;;;6247966;23;20000;-84
2022/01/05 23:40:27;;;;;;;0.85;0.75;;;;;;;;;;6247645;23;20003;-84
2022/01/05 23:42:56;;;;;;;0.80;0.80;;;;;;;;;;6220723;23;20008;-84
2022/01/05 23:45:24;;;;;;;0.98;0.90;;;;;;;;;;6247775;23;20031;-84
2022/01/05 23:47:56;;;;;;;0.85;0.85;;;;;;;;;;6221965;23;20023;-84
2022/01/05 23:50:23;;;;;;;0.55;0.55;;;;;;;;;;6220729;23;20339;-84
2022/01/05 23:52:49;;;;;;;0.60;0.60;;;;;;;;;;6247669;23;20007;-84
2022/01/05 23:55:15;;;;;;;0.90;0.70;;;;;;;;;;6247556;23;20012;-84
2022/01/05 23:57:41;;;;;;;0.68;0.68;;;;;;;;;;6247675;23;20011;-84
